Diepholz Airport ETND

Flugplatz Daten

Name: Diepholz Airport

Ident: ETND

Lat: 52,58555603

Long: 8,342222214

Platzhöhe: 128 ft

IataCode:

City: Diepholz

Metar

2021/10/20 12:20
ETND 201220Z 23016KT 9999 BKN026 18/13 Q1001 BLU

Taf

2021/09/08 11:49
TAF ETND 081035Z 0811/0911 CNL 1035 BY ETGL
Gewünschte Webcam nicht vorhanden? Dann fügen Sie eine hinzu. Sie wird dann so schnell wie möglich freigeschaltet
Url: Title: